createdAt,value
2017-12-24T09:44:54.030Z,4.20
2017-12-24T09:47:22.988Z,5.45
2017-12-24T09:49:51.965Z,9.20
2017-12-24T09:52:20.928Z,9.82
2017-12-24T09:54:49.796Z,11.10
2017-12-24T09:57:18.664Z,11.40
2017-12-24T09:59:47.614Z,9.30
2017-12-24T10:02:16.465Z,7.73
2017-12-24T10:04:45.408Z,3.13
2017-12-24T10:07:14.462Z,5.30
2017-12-24T10:09:43.325Z,3.63
2017-12-24T10:12:12.188Z,3.57
2017-12-24T10:14:41.096Z,6.90
2017-12-24T10:17:09.968Z,3.70
2017-12-24T10:19:38.944Z,3.03
2017-12-24T10:22:07.881Z,2.90
2017-12-24T10:24:36.796Z,3.60
2017-12-24T10:27:05.888Z,2.03
2017-12-24T10:29:34.829Z,3.40
2017-12-24T10:32:03.696Z,5.07
2017-12-24T10:34:32.779Z,4.43
2017-12-24T10:37:01.677Z,2.17
2017-12-24T10:39:30.548Z,1.40
2017-12-24T10:41:59.506Z,2.63
2017-12-24T10:44:28.353Z,1.50
2017-12-24T10:46:57.231Z,1.50
2017-12-24T10:49:26.456Z,3.33
2017-12-24T10:51:55.406Z,5.30
2017-12-24T10:54:24.272Z,1.83
2017-12-24T10:56:53.200Z,1.87
2017-12-24T10:59:22.155Z,5.67
2017-12-24T11:01:51.029Z,3.00
2017-12-24T11:04:19.958Z,3.40
2017-12-24T11:06:48.940Z,3.30
2017-12-24T11:09:17.801Z,2.80
2017-12-24T11:11:47.025Z,3.30
2017-12-24T11:14:16.007Z,1.30
2017-12-24T11:16:44.902Z,3.50
2017-12-24T11:19:13.763Z,1.30
2017-12-24T11:21:42.684Z,2.80
2017-12-24T11:24:11.648Z,1.53
2017-12-24T11:26:40.507Z,3.00
2017-12-24T11:29:09.419Z,1.30
2017-12-24T11:31:38.289Z,1.40
2017-12-24T11:34:07.172Z,1.23
2017-12-24T11:36:36.187Z,3.20
2017-12-24T11:39:05.051Z,2.13
2017-12-24T11:41:33.915Z,3.10
2017-12-24T11:44:02.895Z,1.87
2017-12-24T11:46:31.794Z,1.50
2017-12-24T11:49:00.656Z,0.90
2017-12-24T11:51:29.572Z,1.43
2017-12-24T11:53:58.422Z,2.37
2017-12-24T11:56:27.347Z,1.40
2017-12-24T11:58:56.716Z,3.90
2017-12-24T12:01:25.564Z,1.83
2017-12-24T12:03:54.464Z,1.20
2017-12-24T12:06:23.316Z,1.30
2017-12-24T12:08:52.184Z,1.13
2017-12-24T12:11:21.054Z,1.40
2017-12-24T12:13:50.028Z,1.10
2017-12-24T12:16:19.067Z,2.13
2017-12-24T12:18:48.071Z,1.40
2017-12-24T12:21:16.930Z,2.60
2017-12-24T12:23:46.070Z,2.93
2017-12-24T12:26:14.941Z,3.00
2017-12-24T12:28:43.873Z,3.47
2017-12-24T12:31:12.770Z,2.47
2017-12-24T12:33:41.647Z,1.80
2017-12-24T12:36:10.505Z,2.73
2017-12-24T12:38:39.430Z,4.10
2017-12-24T12:41:08.354Z,1.40
2017-12-24T12:43:37.177Z,2.43
2017-12-24T12:46:06.173Z,1.20
2017-12-24T12:48:35.032Z,4.63
2017-12-24T12:51:03.896Z,3.80
2017-12-24T12:53:33.047Z,1.90
2017-12-24T12:56:01.970Z,1.30
2017-12-24T12:58:30.799Z,1.00
2017-12-24T13:00:59.744Z,1.40
2017-12-24T13:03:28.607Z,1.33
2017-12-24T13:05:57.485Z,1.10
2017-12-24T13:08:26.584Z,1.13
2017-12-24T13:10:55.484Z,1.03
2017-12-24T13:13:24.379Z,1.10
2017-12-24T13:15:53.325Z,2.20
2017-12-24T13:18:22.177Z,4.03
2017-12-24T13:20:51.048Z,1.10
2017-12-24T13:23:20.035Z,1.60
2017-12-24T13:25:48.902Z,1.10
2017-12-24T13:28:17.773Z,0.90
2017-12-24T13:30:46.895Z,3.10
2017-12-24T13:33:15.752Z,1.00
2017-12-24T13:35:44.614Z,1.20
2017-12-24T13:38:13.578Z,1.10
2017-12-24T13:40:42.425Z,1.20
2017-12-24T13:43:11.310Z,1.20
2017-12-24T13:45:40.333Z,1.77
2017-12-24T13:48:09.196Z,1.37
2017-12-24T13:50:38.086Z,1.30
2017-12-24T13:53:07.060Z,1.30
2017-12-24T13:55:36.131Z,1.40
2017-12-24T13:58:05.009Z,1.60
2017-12-24T14:00:33.953Z,1.57
2017-12-24T14:03:02.812Z,2.03
2017-12-24T14:05:31.686Z,1.30
2017-12-24T14:08:00.772Z,2.13
2017-12-24T14:10:29.632Z,1.67
2017-12-24T14:12:58.488Z,2.03
2017-12-24T14:15:27.534Z,3.13
2017-12-24T14:17:56.401Z,1.57
2017-12-24T14:20:25.272Z,2.17
2017-12-24T14:22:54.167Z,1.77
2017-12-24T14:25:23.141Z,1.63
2017-12-24T14:27:52.093Z,2.03
2017-12-24T14:30:21.014Z,1.40
2017-12-24T14:32:49.904Z,1.67
2017-12-24T14:35:18.782Z,1.63
2017-12-24T14:37:47.809Z,2.73
2017-12-24T14:40:16.938Z,1.93
2017-12-24T14:42:45.807Z,1.87
2017-12-24T14:45:14.669Z,3.00
2017-12-24T14:47:43.622Z,3.17
2017-12-24T14:50:12.496Z,1.67
2017-12-24T14:52:41.385Z,1.57
2017-12-24T14:55:10.402Z,2.03
2017-12-24T14:57:39.287Z,1.87
2017-12-24T15:00:08.145Z,1.87
2017-12-24T15:02:37.089Z,2.63
2017-12-24T15:05:06.058Z,2.90
2017-12-24T15:07:34.925Z,2.77
2017-12-24T15:10:03.780Z,4.17
2017-12-24T15:12:33.291Z,2.03
2017-12-24T15:15:02.236Z,2.77
2017-12-24T15:17:31.111Z,3.53
2017-12-24T15:19:59.974Z,4.73
2017-12-24T15:22:28.828Z,1.90
2017-12-24T15:24:57.700Z,2.37
2017-12-24T15:27:26.551Z,3.20
2017-12-24T15:29:55.412Z,1.70
2017-12-24T15:32:24.280Z,3.20
2017-12-24T15:34:53.175Z,2.67
2017-12-24T15:37:22.032Z,4.83
2017-12-24T15:39:50.876Z,3.40
2017-12-24T15:42:19.744Z,4.17
2017-12-24T15:44:48.594Z,2.63
2017-12-24T15:47:17.455Z,3.70
2017-12-24T15:49:46.319Z,1.97
2017-12-24T15:52:15.189Z,2.20
2017-12-24T15:54:44.057Z,1.80
2017-12-24T15:57:12.917Z,2.87
2017-12-24T15:59:41.897Z,2.50
2017-12-24T16:02:10.845Z,2.67
2017-12-24T16:04:39.760Z,2.63
2017-12-24T16:07:08.724Z,6.07
2017-12-24T16:09:37.779Z,2.17
2017-12-24T16:12:06.815Z,2.97
2017-12-24T16:14:35.905Z,1.67
2017-12-24T16:17:04.795Z,3.23
2017-12-24T16:19:33.748Z,2.23
2017-12-24T16:22:02.693Z,2.33
2017-12-24T16:24:31.625Z,1.90
2017-12-24T16:27:00.478Z,2.30
2017-12-24T16:29:29.341Z,3.33
2017-12-24T16:31:58.213Z,2.30
2017-12-24T16:34:27.072Z,1.80
2017-12-24T16:36:55.931Z,2.47
2017-12-24T16:39:24.803Z,1.57
2017-12-24T16:41:53.664Z,1.80
2017-12-24T16:44:22.521Z,1.70
2017-12-24T16:46:51.404Z,2.13
2017-12-24T16:49:20.266Z,2.73
2017-12-24T16:51:49.134Z,1.43
2017-12-24T16:54:18.052Z,1.67
2017-12-24T16:56:46.905Z,1.60
2017-12-24T16:59:15.779Z,1.63
2017-12-24T17:01:44.636Z,1.60
2017-12-24T17:04:13.496Z,1.90
2017-12-24T17:06:42.369Z,1.73
2017-12-24T17:09:11.227Z,1.53
2017-12-24T17:11:40.088Z,1.77
2017-12-24T17:14:08.949Z,2.50
2017-12-24T17:16:37.799Z,1.40
2017-12-24T17:19:06.671Z,1.70
2017-12-24T17:21:35.551Z,1.23
2017-12-24T17:24:04.425Z,1.80
2017-12-24T17:26:33.275Z,1.80
2017-12-24T17:29:02.161Z,1.60
2017-12-24T17:31:31.019Z,1.50
2017-12-24T17:33:59.873Z,1.63
2017-12-24T17:36:28.728Z,1.90
2017-12-24T17:38:57.598Z,1.33
2017-12-24T17:41:26.476Z,1.70
2017-12-24T17:43:55.338Z,1.33
2017-12-24T17:46:24.211Z,1.50
2017-12-24T17:48:53.076Z,1.57
2017-12-24T17:51:21.931Z,1.43
2017-12-24T17:53:50.809Z,1.80
2017-12-24T17:56:19.671Z,1.60
2017-12-24T17:58:48.537Z,1.90
2017-12-24T18:01:17.410Z,3.80
2017-12-24T18:03:46.289Z,2.50
2017-12-24T18:06:15.179Z,1.60
2017-12-24T18:08:44.076Z,1.40
2017-12-24T18:11:12.963Z,1.40
2017-12-24T18:13:41.870Z,1.30
2017-12-24T18:16:10.749Z,1.20
2017-12-24T18:18:39.642Z,1.63
2017-12-24T18:21:08.576Z,1.50
2017-12-24T18:23:37.587Z,2.80
2017-12-24T18:26:06.461Z,1.23
2017-12-24T18:28:35.392Z,1.87
2017-12-24T18:31:04.287Z,2.70
2017-12-24T18:33:33.203Z,2.20
2017-12-24T18:36:02.070Z,2.33
2017-12-24T18:38:31.028Z,1.70
2017-12-24T18:41:00.004Z,1.60
2017-12-24T18:43:29.136Z,3.57
2017-12-24T18:45:58.008Z,1.40
2017-12-24T18:48:26.935Z,1.87
2017-12-24T18:50:55.880Z,1.37
2017-12-24T18:53:24.805Z,2.03
2017-12-24T18:55:53.758Z,1.40
2017-12-24T18:58:22.642Z,2.17
2017-12-24T19:00:51.507Z,1.30
2017-12-24T19:03:20.445Z,1.40
2017-12-24T19:05:49.304Z,1.40
2017-12-24T19:08:18.170Z,1.63
2017-12-24T19:10:47.044Z,1.90
2017-12-24T19:13:15.943Z,3.40
2017-12-24T19:15:44.278Z,2.00
2017-12-24T19:18:13.207Z,6.10
2017-12-24T19:20:42.135Z,3.83
2017-12-24T19:23:11.009Z,1.53
2017-12-24T19:25:39.884Z,4.80
2017-12-24T19:28:08.795Z,1.33
2017-12-24T19:30:37.627Z,1.23
2017-12-24T19:33:06.496Z,1.30
2017-12-24T19:35:35.357Z,1.10
2017-12-24T19:38:04.216Z,1.27
2017-12-24T19:40:33.092Z,1.83
2017-12-24T19:43:01.958Z,1.37
2017-12-24T19:45:30.924Z,1.37
2017-12-24T19:47:59.788Z,1.20
2017-12-24T19:50:28.651Z,1.33
2017-12-24T19:52:57.566Z,1.20
2017-12-24T19:55:26.491Z,1.47
2017-12-24T19:57:55.372Z,1.67
2017-12-24T20:00:24.254Z,3.73
2017-12-24T20:02:53.115Z,1.50
2017-12-24T20:05:22.002Z,2.20
2017-12-24T20:07:50.854Z,1.07
2017-12-24T20:10:19.721Z,1.73
2017-12-24T20:12:48.568Z,1.20
2017-12-24T20:15:17.452Z,1.90
2017-12-24T20:17:46.304Z,1.40
2017-12-24T20:20:15.161Z,1.70
2017-12-24T20:22:44.025Z,1.40
2017-12-24T20:25:12.903Z,1.77
2017-12-24T20:27:41.771Z,1.30
2017-12-24T20:30:10.623Z,1.20
2017-12-24T20:32:39.485Z,1.90
2017-12-24T20:37:43.720Z,1.40
2017-12-24T20:40:12.651Z,1.40
2017-12-24T20:42:41.493Z,1.53
2017-12-24T20:45:10.360Z,1.47
2017-12-24T20:47:39.237Z,1.40
2017-12-24T20:50:08.101Z,1.50
2017-12-24T20:52:36.974Z,1.90
2017-12-24T20:55:05.848Z,1.43
2017-12-24T20:57:34.712Z,1.97
2017-12-24T21:00:03.573Z,1.30
2017-12-24T21:02:32.478Z,1.40
2017-12-24T21:05:01.335Z,1.57
2017-12-24T21:07:30.192Z,1.40
2017-12-24T21:09:59.108Z,1.30
2017-12-24T21:12:27.991Z,1.57
2017-12-24T21:14:56.934Z,1.40
2017-12-24T21:17:25.924Z,1.50
2017-12-24T21:19:54.869Z,1.33
2017-12-24T21:22:23.868Z,1.20
2017-12-24T21:24:52.865Z,1.63
2017-12-24T21:27:21.816Z,1.77
2017-12-24T21:29:50.830Z,1.43
2017-12-24T21:32:19.784Z,1.20
2017-12-24T21:34:48.921Z,1.40
2017-12-24T21:37:17.846Z,1.30
2017-12-24T21:39:46.840Z,1.70
2017-12-24T21:42:15.692Z,1.40
2017-12-24T21:44:44.765Z,1.33
2017-12-24T21:47:13.699Z,1.53
2017-12-24T21:49:42.560Z,1.37
2017-12-24T21:52:11.416Z,1.07
2017-12-24T21:54:40.280Z,1.20
2017-12-24T21:57:09.132Z,1.30
2017-12-24T21:59:37.999Z,1.13
2017-12-24T22:02:06.932Z,1.10
2017-12-24T22:04:35.837Z,1.30
2017-12-24T22:07:04.694Z,1.30
2017-12-24T22:09:33.604Z,1.60
2017-12-24T22:12:02.463Z,1.33
2017-12-24T22:14:31.349Z,1.37
2017-12-24T22:17:00.232Z,1.27
2017-12-24T22:19:29.091Z,1.43
2017-12-24T22:21:57.956Z,1.40
2017-12-24T22:24:26.811Z,1.30
2017-12-24T22:26:55.660Z,1.47
2017-12-24T22:29:24.524Z,1.20
2017-12-24T22:31:53.496Z,1.43
2017-12-24T22:34:22.360Z,1.53
2017-12-24T22:36:51.225Z,1.13
2017-12-24T22:39:20.090Z,1.20
2017-12-24T22:41:48.960Z,1.67
2017-12-24T22:44:17.823Z,1.77
2017-12-24T22:46:46.685Z,1.50
2017-12-24T22:49:15.540Z,1.67
2017-12-24T22:51:44.406Z,1.10
2017-12-24T22:54:13.282Z,1.30
2017-12-24T22:56:42.172Z,1.17
2017-12-24T22:59:11.039Z,1.20
2017-12-24T23:01:39.905Z,1.20
2017-12-24T23:04:08.767Z,1.93
2017-12-24T23:06:37.672Z,1.47
2017-12-24T23:09:06.520Z,1.03
2017-12-24T23:11:35.387Z,1.37
2017-12-24T23:14:04.256Z,1.13
2017-12-24T23:16:33.144Z,1.40
2017-12-24T23:19:02.062Z,1.47
2017-12-24T23:21:31.007Z,1.10
2017-12-24T23:23:59.913Z,1.60
2017-12-24T23:26:28.904Z,1.93
2017-12-24T23:28:57.787Z,1.27
2017-12-24T23:31:26.784Z,1.63
2017-12-24T23:33:55.757Z,2.07
2017-12-24T23:36:24.645Z,1.77
2017-12-24T23:38:53.645Z,1.40
2017-12-24T23:41:22.492Z,2.53
2017-12-24T23:43:51.401Z,1.10
2017-12-24T23:46:20.260Z,1.40
2017-12-24T23:48:49.131Z,1.10
2017-12-24T23:51:17.982Z,2.83
2017-12-24T23:53:46.880Z,1.33
2017-12-24T23:56:15.773Z,1.17
2017-12-24T23:58:44.614Z,1.40
